createdAt,value
2022-11-19T00:00:52.214Z,96923.66
2022-11-19T00:01:54.910Z,96918.81
2022-11-19T00:02:57.654Z,96925.91
2022-11-19T00:04:00.600Z,96930.63
2022-11-19T00:05:03.301Z,96923.59
2022-11-19T00:06:09.275Z,96935.31
2022-11-19T00:07:12.134Z,96936.19
2022-11-19T00:08:18.959Z,96938.19
2022-11-19T00:09:21.778Z,96938.03
2022-11-19T00:10:24.446Z,96942.75
2022-11-19T00:11:47.145Z,96948.72
2022-11-19T00:12:55.543Z,96942.03
2022-11-19T00:13:58.526Z,96950.31
2022-11-19T00:15:01.096Z,96959.16
2022-11-19T00:16:08.059Z,96957.25
2022-11-19T00:17:10.867Z,96961.41
2022-11-19T00:18:14.171Z,96959.25
2022-11-19T00:19:17.071Z,96966.66
2022-11-19T00:20:20.013Z,96972.97
2022-11-19T00:21:22.971Z,96966.09
2022-11-19T00:22:25.659Z,96971.19
2022-11-19T00:23:28.258Z,96966.72
2022-11-19T00:24:30.983Z,96969.63
2022-11-19T00:25:33.898Z,96966.91
2022-11-19T00:26:36.859Z,96963.28
2022-11-19T00:27:39.812Z,96967.44
2022-11-19T00:28:42.695Z,96969.28
2022-11-19T00:29:45.529Z,96977.25
2022-11-19T00:30:48.839Z,96981.00
2022-11-19T00:31:51.659Z,96979.19
2022-11-19T00:32:54.297Z,96987.47
2022-11-19T00:33:56.991Z,96983.16
2022-11-19T00:34:59.650Z,96993.69
2022-11-19T00:36:03.815Z,96992.75
2022-11-19T00:37:06.581Z,96988.25
2022-11-19T00:38:09.561Z,96985.69
2022-11-19T00:39:12.335Z,96990.41
2022-11-19T00:40:15.227Z,96988.09
2022-11-19T00:41:18.226Z,96995.50
2022-11-19T00:42:21.331Z,96995.91
2022-11-19T00:43:43.243Z,96994.50
2022-11-19T00:44:45.959Z,96991.47
2022-11-19T00:45:49.276Z,96994.41
2022-11-19T00:46:52.016Z,96995.53
2022-11-19T00:47:54.577Z,96999.31
2022-11-19T00:48:59.999Z,96996.31
2022-11-19T00:50:02.576Z,96999.00
2022-11-19T00:51:07.190Z,96996.31
2022-11-19T00:52:09.959Z,97002.38
2022-11-19T00:53:12.824Z,96997.87
2022-11-19T00:54:15.591Z,96998.66
2022-11-19T00:55:18.334Z,96994.97
2022-11-19T00:56:24.927Z,97002.03
2022-11-19T00:57:27.530Z,97006.88
2022-11-19T00:58:30.480Z,97004.25
2022-11-19T00:59:33.140Z,97010.75
2022-11-19T01:00:35.968Z,97014.94
2022-11-19T01:01:38.830Z,97019.63
2022-11-19T01:02:41.649Z,97017.28
2022-11-19T01:03:46.185Z,97018.56
2022-11-19T01:04:48.967Z,97024.28
2022-11-19T01:05:52.146Z,97020.56
2022-11-19T01:06:55.307Z,97022.03
2022-11-19T01:07:58.105Z,97029.66
2022-11-19T01:09:01.001Z,97028.03
2022-11-19T01:10:04.119Z,97034.00
2022-11-19T01:11:08.557Z,97034.72
2022-11-19T01:12:11.171Z,97041.41
2022-11-19T01:13:36.733Z,97042.47
2022-11-19T01:14:39.362Z,97035.06
2022-11-19T01:15:42.125Z,97044.28
2022-11-19T01:16:45.021Z,97040.12
2022-11-19T01:17:48.021Z,97040.50
2022-11-19T01:18:52.118Z,97047.19
2022-11-19T01:19:55.725Z,97051.37
2022-11-19T01:20:58.427Z,97045.59
2022-11-19T01:22:01.005Z,97062.34
2022-11-19T01:23:03.722Z,97048.12
2022-11-19T01:24:06.802Z,97059.87
2022-11-19T01:25:09.840Z,97057.19
2022-11-19T01:26:13.939Z,97061.69
2022-11-19T01:27:16.651Z,97057.56
2022-11-19T01:28:19.501Z,97068.38
2022-11-19T01:29:22.360Z,97082.09
2022-11-19T01:30:25.031Z,97078.50
2022-11-19T01:31:29.786Z,97087.16
2022-11-19T01:32:33.037Z,97083.91
2022-11-19T01:33:36.406Z,97088.06
2022-11-19T01:34:39.106Z,97089.50
2022-11-19T01:35:42.135Z,97086.41
2022-11-19T01:36:45.130Z,97091.13
2022-11-19T01:37:47.737Z,97083.56
2022-11-19T01:38:51.267Z,97088.78
2022-11-19T01:39:53.979Z,97082.84
2022-11-19T01:40:57.847Z,97075.44
2022-11-19T01:42:00.545Z,97075.63
2022-11-19T01:43:03.094Z,97080.84
2022-11-19T01:44:08.377Z,97088.78
2022-11-19T01:45:32.364Z,97098.91
2022-11-19T01:46:38.557Z,97089.34
2022-11-19T01:47:41.210Z,97096.19
2022-11-19T01:48:51.260Z,97099.44
2022-11-19T01:49:54.510Z,97096.91
2022-11-19T01:51:05.671Z,97100.16
2022-11-19T01:52:08.874Z,97095.28
2022-11-19T01:53:12.980Z,97096.56
2022-11-19T01:54:42.653Z,97106.09
2022-11-19T01:55:47.349Z,97109.72
2022-11-19T01:56:50.077Z,97107.38
2022-11-19T01:57:59.037Z,97101.78
2022-11-19T01:59:11.553Z,97105.03
2022-11-19T02:00:14.635Z,97117.47
2022-11-19T02:01:20.087Z,97121.06
2022-11-19T02:02:24.286Z,97114.41
2022-11-19T02:03:31.279Z,97117.12
2022-11-19T02:04:35.478Z,97124.50
2022-11-19T02:05:39.716Z,97125.41
2022-11-19T02:06:44.463Z,97120.53
2022-11-19T02:07:56.691Z,97116.19
2022-11-19T02:08:59.512Z,97119.09
2022-11-19T02:10:05.261Z,97119.81
2022-11-19T02:11:25.998Z,97126.47
2022-11-19T02:12:28.573Z,97126.47
2022-11-19T02:13:36.427Z,97134.25
2022-11-19T02:15:00.027Z,97139.81
2022-11-19T02:16:11.775Z,97141.44
2022-11-19T02:17:22.015Z,97143.59
2022-11-19T02:18:52.054Z,97149.72
2022-11-19T02:20:00.221Z,97154.25
2022-11-19T02:21:48.006Z,97157.69
2022-11-19T02:23:29.262Z,97162.38
2022-11-19T02:24:54.018Z,97158.41
2022-11-19T02:26:33.920Z,97152.81
2022-11-19T02:28:00.787Z,97164.72
2022-11-19T02:29:18.930Z,97159.84
2022-11-19T02:30:21.924Z,97156.59
2022-11-19T02:31:30.865Z,97149.75
2022-11-19T02:32:38.960Z,97156.97
2022-11-19T02:33:50.827Z,97153.88
2022-11-19T02:35:04.851Z,97156.94
2022-11-19T02:36:17.148Z,97157.09
2022-11-19T02:37:41.291Z,97163.59
2022-11-19T02:39:03.884Z,97169.00
2022-11-19T02:40:14.112Z,97171.00
2022-11-19T02:41:39.942Z,97172.41
2022-11-19T02:42:51.115Z,97185.03
2022-11-19T02:44:21.327Z,97193.47
2022-11-19T02:45:28.929Z,97198.31
2022-11-19T02:46:32.057Z,97209.47
2022-11-19T02:47:40.680Z,97219.37
2022-11-19T02:48:51.398Z,97212.75
2022-11-19T02:50:01.413Z,97212.91
2022-11-19T02:51:05.016Z,97216.34
2022-11-19T02:52:08.476Z,97217.41
2022-11-19T02:53:11.247Z,97208.19
2022-11-19T02:54:17.701Z,97212.69
2022-11-19T02:55:21.726Z,97210.34
2022-11-19T02:56:46.035Z,97216.28
2022-11-19T02:58:04.934Z,97207.09
2022-11-19T02:59:26.870Z,97213.41
2022-11-19T03:00:54.601Z,97210.31
2022-11-19T03:02:17.924Z,97211.56
2022-11-19T03:03:40.652Z,97217.88
2022-11-19T03:04:43.428Z,97221.53
2022-11-19T03:05:52.298Z,97232.19
2022-11-19T03:07:07.055Z,97230.53
2022-11-19T03:08:09.891Z,97231.25
2022-11-19T03:09:13.489Z,97244.03
2022-11-19T03:10:20.453Z,97245.50
2022-11-19T03:11:29.331Z,97248.53
2022-11-19T03:12:59.690Z,97245.66
2022-11-19T03:14:35.569Z,97250.53
2022-11-19T03:16:05.978Z,97245.84
2022-11-19T03:17:22.490Z,97243.53
2022-11-19T03:18:50.016Z,97253.41
2022-11-19T03:20:27.209Z,97256.66
2022-11-19T03:21:39.771Z,97260.62
2022-11-19T03:22:45.704Z,97257.03
2022-11-19T03:23:54.971Z,97254.12
2022-11-19T03:25:12.591Z,97253.56
2022-11-19T03:26:33.057Z,97246.00
2022-11-19T03:27:41.449Z,97252.69
2022-11-19T03:28:47.053Z,97246.94
2022-11-19T03:29:54.102Z,97250.53
2022-11-19T03:31:00.511Z,97249.97
2022-11-19T03:32:08.728Z,97247.47
2022-11-19T03:33:17.618Z,97249.25
2022-11-19T03:34:23.703Z,97252.84
2022-11-19T03:35:32.060Z,97244.19
2022-11-19T03:36:40.850Z,97252.50
2022-11-19T03:37:50.837Z,97251.56
2022-11-19T03:38:58.860Z,97251.41
2022-11-19T03:40:03.345Z,97253.72
2022-11-19T03:41:07.484Z,97258.94
2022-11-19T03:42:13.170Z,97261.97
2022-11-19T03:43:20.420Z,97261.41
2022-11-19T03:44:38.291Z,97259.97
2022-11-19T03:45:44.447Z,97263.72
2022-11-19T03:46:52.692Z,97267.50
2022-11-19T03:47:57.505Z,97273.56
2022-11-19T03:49:02.515Z,97267.44
2022-11-19T03:50:31.332Z,97267.97
2022-11-19T03:52:10.750Z,97278.59
2022-11-19T03:53:13.572Z,97287.72
2022-11-19T03:54:16.650Z,97281.44
2022-11-19T03:55:24.810Z,97283.97
2022-11-19T03:56:29.503Z,97287.59
2022-11-19T03:57:32.252Z,97289.72
2022-11-19T03:58:43.733Z,97294.38
2022-11-19T03:59:47.372Z,97297.63
2022-11-19T04:00:50.058Z,97296.31
2022-11-19T04:01:56.622Z,97303.31
2022-11-19T04:03:00.104Z,97296.66
2022-11-19T04:04:21.614Z,97295.00
2022-11-19T04:05:24.333Z,97290.31
2022-11-19T04:06:27.132Z,97287.47
2022-11-19T04:07:29.885Z,97279.78
2022-11-19T04:08:33.154Z,97278.03
2022-11-19T04:09:36.004Z,97281.69
2022-11-19T04:10:38.693Z,97287.56
2022-11-19T04:11:41.500Z,97293.34
2022-11-19T04:12:44.182Z,97295.78
2022-11-19T04:13:46.929Z,97299.88
2022-11-19T04:14:55.116Z,97297.91
2022-11-19T04:15:57.731Z,97308.44
2022-11-19T04:17:01.050Z,97308.81
2022-11-19T04:18:03.931Z,97305.16
2022-11-19T04:19:06.611Z,97309.06
2022-11-19T04:20:10.172Z,97315.00
2022-11-19T04:21:12.812Z,97306.00
2022-11-19T04:22:15.462Z,97307.62
2022-11-19T04:23:18.172Z,97312.84
2022-11-19T04:24:21.009Z,97318.44
2022-11-19T04:25:23.736Z,97325.50
2022-11-19T04:26:26.368Z,97336.06
2022-11-19T04:27:28.971Z,97336.28
2022-11-19T04:28:31.734Z,97342.72
2022-11-19T04:29:34.496Z,97351.38
2022-11-19T04:30:37.093Z,97351.69
2022-11-19T04:31:40.049Z,97357.63
2022-11-19T04:32:43.063Z,97359.78
2022-11-19T04:33:46.257Z,97353.75
2022-11-19T04:34:49.770Z,97366.00
2022-11-19T04:35:52.436Z,97359.16
2022-11-19T04:36:55.208Z,97360.38
2022-11-19T04:37:57.828Z,97363.97
2022-11-19T04:39:00.532Z,97356.91
2022-11-19T04:40:03.614Z,97361.03
2022-11-19T04:41:06.459Z,97369.94
2022-11-19T04:42:09.011Z,97368.88
2022-11-19T04:43:11.660Z,97365.44
2022-11-19T04:44:14.332Z,97372.28
2022-11-19T04:45:17.169Z,97374.66
2022-11-19T04:46:19.891Z,97368.00
2022-11-19T04:47:22.854Z,97380.13
2022-11-19T04:48:25.611Z,97391.28
2022-11-19T04:49:28.217Z,97388.34
2022-11-19T04:50:30.902Z,97390.88
2022-11-19T04:51:33.509Z,97393.19
2022-11-19T04:52:40.864Z,97401.69
2022-11-19T04:53:44.503Z,97396.81
2022-11-19T04:54:47.215Z,97401.50
2022-11-19T04:55:49.810Z,97398.78
2022-11-19T04:56:52.609Z,97400.88
2022-11-19T04:57:55.618Z,97397.97
2022-11-19T04:58:59.047Z,97401.22
2022-11-19T05:00:01.689Z,97412.00
2022-11-19T05:01:05.284Z,97398.72
2022-11-19T05:02:07.977Z,97398.84
2022-11-19T05:03:10.658Z,97408.00
2022-11-19T05:04:13.529Z,97409.97
2022-11-19T05:05:16.169Z,97407.78
2022-11-19T05:06:18.881Z,97406.16
2022-11-19T05:07:21.546Z,97409.34
2022-11-19T05:08:24.458Z,97404.69
2022-11-19T05:09:27.056Z,97415.50
2022-11-19T05:10:32.573Z,97416.22
2022-11-19T05:11:35.138Z,97418.19
2022-11-19T05:12:37.732Z,97416.72
2022-11-19T05:13:40.450Z,97423.78
2022-11-19T05:14:43.289Z,97429.19
2022-11-19T05:15:46.498Z,97427.94
2022-11-19T05:16:49.358Z,97428.66
2022-11-19T05:17:52.171Z,97424.50
2022-11-19T05:18:54.888Z,97426.69
2022-11-19T05:19:59.733Z,97421.50
2022-11-19T05:21:02.409Z,97431.16
2022-11-19T05:22:04.981Z,97436.56
2022-11-19T05:23:07.784Z,97438.72
2022-11-19T05:24:10.377Z,97433.53
2022-11-19T05:25:13.091Z,97437.69
2022-11-19T05:26:15.978Z,97443.69
2022-11-19T05:27:18.777Z,97443.88
2022-11-19T05:28:32.846Z,97446.03
2022-11-19T05:29:41.253Z,97442.72
2022-11-19T05:30:44.014Z,97456.22
2022-11-19T05:31:46.700Z,97456.41
2022-11-19T05:32:49.405Z,97451.00
2022-11-19T05:33:52.043Z,97446.31
2022-11-19T05:34:54.720Z,97444.34
2022-11-19T05:35:57.423Z,97443.62
2022-11-19T05:36:59.948Z,97438.03
2022-11-19T05:38:02.658Z,97438.03
2022-11-19T05:39:05.351Z,97440.31
2022-11-19T05:40:08.715Z,97439.19
2022-11-19T05:41:11.448Z,97435.06
2022-11-19T05:42:14.231Z,97436.31
2022-11-19T05:43:17.016Z,97447.00
2022-11-19T05:44:19.643Z,97449.00
2022-11-19T05:45:22.359Z,97454.94
2022-11-19T05:46:25.239Z,97450.38
2022-11-19T05:47:28.730Z,97468.00
2022-11-19T05:48:31.244Z,97467.81
2022-11-19T05:49:33.830Z,97477.16
2022-11-19T05:50:36.467Z,97478.63
2022-11-19T05:51:39.042Z,97477.59
2022-11-19T05:52:41.656Z,97480.28
2022-11-19T05:53:44.408Z,97477.78
2022-11-19T05:54:47.078Z,97480.47
2022-11-19T05:55:49.743Z,97486.19
2022-11-19T05:56:52.380Z,97488.50
2022-11-19T05:57:55.129Z,97485.78
2022-11-19T05:58:57.824Z,97496.06
2022-11-19T06:00:00.601Z,97495.00
2022-11-19T06:01:03.912Z,97499.91
2022-11-19T06:02:06.564Z,97499.38
2022-11-19T06:03:10.964Z,97496.13
2022-11-19T06:04:13.957Z,97490.22
2022-11-19T06:05:16.616Z,97492.91
2022-11-19T06:06:19.711Z,97491.69
2022-11-19T06:07:22.593Z,97488.63
2022-11-19T06:08:25.662Z,97494.37
2022-11-19T06:09:28.341Z,97499.56
2022-11-19T06:10:31.128Z,97503.69
2022-11-19T06:11:48.849Z,97503.50
2022-11-19T06:12:51.492Z,97501.34
2022-11-19T06:13:54.123Z,97506.22
2022-11-19T06:14:56.822Z,97507.66
2022-11-19T06:15:59.472Z,97513.59
2022-11-19T06:17:02.850Z,97513.59
2022-11-19T06:18:05.702Z,97515.56
2022-11-19T06:19:09.281Z,97522.41
2022-11-19T06:20:12.262Z,97533.94
2022-11-19T06:21:15.192Z,97532.91
2022-11-19T06:22:18.033Z,97534.53
2022-11-19T06:23:21.893Z,97547.00
2022-11-19T06:24:24.715Z,97538.38
2022-11-19T06:25:30.874Z,97545.63
2022-11-19T06:26:34.063Z,97537.00
2022-11-19T06:27:36.794Z,97544.38
2022-11-19T06:28:39.486Z,97541.69
2022-11-19T06:29:42.081Z,97546.75
2022-11-19T06:30:45.706Z,97544.59
2022-11-19T06:31:48.519Z,97542.09
2022-11-19T06:32:51.142Z,97542.50
2022-11-19T06:33:53.834Z,97545.38
2022-11-19T06:34:56.525Z,97551.81
2022-11-19T06:35:59.225Z,97546.94
2022-11-19T06:37:01.774Z,97553.06
2022-11-19T06:38:04.505Z,97551.81
2022-11-19T06:39:07.252Z,97546.41
2022-11-19T06:40:11.807Z,97541.84
2022-11-19T06:41:14.599Z,97534.78
2022-11-19T06:42:35.946Z,97536.03
2022-11-19T06:43:38.567Z,97540.59
2022-11-19T06:44:41.231Z,97540.47
2022-11-19T06:45:43.802Z,97535.66
2022-11-19T06:46:46.790Z,97539.50
2022-11-19T06:47:52.861Z,97546.16
2022-11-19T06:48:55.415Z,97550.09
2022-11-19T06:49:58.166Z,97545.75
2022-11-19T06:51:01.876Z,97553.53
2022-11-19T06:52:04.972Z,97557.16
2022-11-19T06:53:07.528Z,97554.97
2022-11-19T06:54:10.245Z,97560.06
2022-11-19T06:55:13.675Z,97572.19
2022-11-19T06:56:16.289Z,97571.47
2022-11-19T06:57:18.832Z,97572.25
2022-11-19T06:58:21.547Z,97563.97
2022-11-19T06:59:24.050Z,97561.97
2022-11-19T07:00:26.771Z,97559.09
2022-11-19T07:01:29.581Z,97561.25
2022-11-19T07:02:32.465Z,97557.31
2022-11-19T07:03:35.860Z,97551.38
2022-11-19T07:04:38.907Z,97554.78
2022-11-19T07:05:42.056Z,97554.16
2022-11-19T07:06:44.639Z,97564.75
2022-11-19T07:07:47.212Z,97557.16
2022-11-19T07:08:49.912Z,97556.25
2022-11-19T07:09:52.831Z,97555.78
2022-11-19T07:10:56.985Z,97552.19
2022-11-19T07:11:59.562Z,97561.53
2022-11-19T07:13:02.467Z,97551.59
2022-11-19T07:14:05.019Z,97562.91
2022-11-19T07:15:08.335Z,97567.38
2022-11-19T07:16:13.121Z,97565.22
2022-11-19T07:17:15.794Z,97565.22
2022-11-19T07:18:18.477Z,97565.22
2022-11-19T07:19:21.875Z,97566.44
2022-11-19T07:20:25.040Z,97559.59
2022-11-19T07:21:29.577Z,97563.75
2022-11-19T07:22:32.438Z,97570.81
2022-11-19T07:23:35.050Z,97568.53
2022-11-19T07:24:37.641Z,97580.84
2022-11-19T07:25:40.287Z,97577.63
2022-11-19T07:26:42.945Z,97579.78
2022-11-19T07:27:47.425Z,97583.75
2022-11-19T07:28:50.060Z,97584.25
2022-11-19T07:29:52.791Z,97587.91
2022-11-19T07:30:56.187Z,97576.16
2022-11-19T07:31:58.833Z,97585.53
2022-11-19T07:33:01.407Z,97590.72
2022-11-19T07:34:07.346Z,97588.75
2022-11-19T07:35:10.546Z,97589.47
2022-11-19T07:36:18.164Z,97584.59
2022-11-19T07:37:21.645Z,97589.47
2022-11-19T07:38:24.535Z,97591.47
2022-11-19T07:39:27.264Z,97586.97
2022-11-19T07:40:30.022Z,97581.56
2022-11-19T07:41:51.027Z,97570.97
2022-11-19T07:42:53.695Z,97572.41
2022-11-19T07:43:56.823Z,97568.13
2022-11-19T07:44:59.498Z,97565.97
2022-11-19T07:46:06.257Z,97558.03
2022-11-19T07:47:09.077Z,97566.88
2022-11-19T07:48:11.773Z,97563.97
2022-11-19T07:49:14.854Z,97569.03
2022-11-19T07:50:17.872Z,97571.59
2022-11-19T07:51:20.725Z,97568.41
2022-11-19T07:52:23.268Z,97570.75
2022-11-19T07:53:25.862Z,97568.25
2022-11-19T07:54:28.869Z,97562.50
2022-11-19T07:55:31.413Z,97558.53
2022-11-19T07:56:34.110Z,97558.75
2022-11-19T07:57:37.076Z,97554.97
2022-11-19T07:58:39.953Z,97567.84
2022-11-19T07:59:42.483Z,97571.78
2022-11-19T08:00:45.175Z,97576.16
2022-11-19T08:01:47.767Z,97575.63
2022-11-19T08:02:50.656Z,97574.56
2022-11-19T08:03:56.600Z,97576.41
2022-11-19T08:04:59.890Z,97578.75
2022-11-19T08:06:06.397Z,97575.72
2022-11-19T08:07:09.389Z,97574.88
2022-11-19T08:08:12.540Z,97579.75
2022-11-19T08:09:15.286Z,97579.06
2022-11-19T08:10:18.034Z,97572.41
2022-11-19T08:11:20.797Z,97581.41
2022-11-19T08:12:23.555Z,97581.41
2022-11-19T08:13:26.153Z,97587.00
2022-11-19T08:14:29.250Z,97591.87
2022-11-19T08:15:35.351Z,97587.00
2022-11-19T08:16:57.615Z,97590.41
2022-11-19T08:18:12.530Z,97599.81
2022-11-19T08:19:18.240Z,97602.09
2022-11-19T08:20:21.315Z,97604.16
2022-11-19T08:21:23.846Z,97608.63
2022-11-19T08:22:26.552Z,97612.41
2022-11-19T08:23:29.086Z,97616.34
2022-11-19T08:24:31.737Z,97612.03
2022-11-19T08:25:34.289Z,97612.34
2022-11-19T08:26:38.401Z,97614.16
2022-11-19T08:27:41.487Z,97629.31
2022-11-19T08:28:44.498Z,97618.69
2022-11-19T08:29:47.330Z,97620.31
2022-11-19T08:30:50.291Z,97620.00
2022-11-19T08:31:52.908Z,97625.28
2022-11-19T08:32:55.559Z,97632.53
2022-11-19T08:33:58.228Z,97638.13
2022-11-19T08:35:00.935Z,97645.37
2022-11-19T08:36:04.219Z,97652.63
2022-11-19T08:37:06.886Z,97646.91
2022-11-19T08:38:10.517Z,97648.66
2022-11-19T08:39:13.984Z,97644.50
2022-11-19T08:40:16.556Z,97642.53
2022-11-19T08:41:37.868Z,97646.16
2022-11-19T08:42:59.676Z,97647.47
2022-11-19T08:44:03.841Z,97642.81
2022-11-19T08:45:07.394Z,97642.81
2022-11-19T08:46:10.024Z,97641.94
2022-11-19T08:47:12.745Z,97639.25
2022-11-19T08:48:15.498Z,97641.25
2022-11-19T08:49:19.100Z,97634.25
2022-11-19T08:50:24.127Z,97631.00
2022-11-19T08:51:26.987Z,97630.66
2022-11-19T08:52:29.743Z,97624.75
2022-11-19T08:53:33.013Z,97629.47
2022-11-19T08:54:35.628Z,97628.25
2022-11-19T08:55:38.209Z,97618.31
2022-11-19T08:56:40.929Z,97612.56
2022-11-19T08:57:43.705Z,97620.69
2022-11-19T08:58:46.880Z,97635.34
2022-11-19T08:59:49.639Z,97642.00
2022-11-19T09:00:52.194Z,97647.44
2022-11-19T09:01:55.057Z,97658.09
2022-11-19T09:02:57.855Z,97669.50
2022-11-19T09:04:00.671Z,97672.59
2022-11-19T09:05:03.323Z,97677.31
2022-11-19T09:06:07.736Z,97676.03
2022-11-19T09:07:10.955Z,97684.72
2022-11-19T09:08:13.725Z,97689.78
2022-11-19T09:09:16.547Z,97686.88
2022-11-19T09:10:19.186Z,97694.13
2022-11-19T09:11:23.076Z,97704.03
2022-11-19T09:12:26.016Z,97702.97
2022-11-19T09:13:28.577Z,97706.78
2022-11-19T09:14:31.074Z,97710.78
2022-11-19T09:15:33.619Z,97711.91
2022-11-19T09:16:36.555Z,97711.94
2022-11-19T09:17:43.788Z,97716.63
2022-11-19T09:18:49.107Z,97721.87
2022-11-19T09:19:51.771Z,97724.44
2022-11-19T09:20:56.285Z,97726.97
2022-11-19T09:21:58.990Z,97723.19
2022-11-19T09:23:01.740Z,97719.94
2022-11-19T09:24:04.966Z,97714.34
2022-11-19T09:25:09.166Z,97717.09
2022-11-19T09:26:15.226Z,97708.78
2022-11-19T09:27:18.305Z,97712.97
2022-11-19T09:28:21.099Z,97705.38
2022-11-19T09:29:23.808Z,97701.19
2022-11-19T09:30:26.571Z,97694.66
2022-11-19T09:31:29.232Z,97690.72
2022-11-19T09:32:32.425Z,97700.66
2022-11-19T09:33:36.961Z,97707.00
2022-11-19T09:34:41.529Z,97706.09
2022-11-19T09:35:44.109Z,97700.28
2022-11-19T09:36:46.855Z,97691.59
2022-11-19T09:37:49.648Z,97704.44
2022-11-19T09:38:56.980Z,97697.41
2022-11-19T09:39:59.881Z,97699.56
2022-11-19T09:41:28.748Z,97708.44
2022-11-19T09:42:40.326Z,97725.06
2022-11-19T09:43:47.989Z,97728.16
2022-11-19T09:44:57.243Z,97726.34
2022-11-19T09:46:10.863Z,97728.53
2022-11-19T09:47:36.482Z,97743.53
2022-11-19T09:48:39.786Z,97739.00
2022-11-19T09:50:01.573Z,97742.09
2022-11-19T09:51:15.267Z,97739.03
2022-11-19T09:52:21.702Z,97751.53
2022-11-19T09:53:30.523Z,97742.66
2022-11-19T09:54:34.396Z,97745.56
2022-11-19T09:55:40.938Z,97744.47
2022-11-19T09:56:46.291Z,97744.13
2022-11-19T09:57:55.563Z,97745.91
2022-11-19T09:59:01.006Z,97741.94
2022-11-19T10:00:06.747Z,97741.56
2022-11-19T10:01:18.075Z,97732.50
2022-11-19T10:02:22.919Z,97727.63
2022-11-19T10:03:32.781Z,97730.91
2022-11-19T10:04:37.012Z,97740.84
2022-11-19T10:06:07.129Z,97738.84
2022-11-19T10:07:47.654Z,97736.69
2022-11-19T10:08:56.269Z,97731.41
2022-11-19T10:10:17.106Z,97736.66
2022-11-19T10:11:47.767Z,97731.91
2022-11-19T10:13:18.456Z,97728.84
2022-11-19T10:14:48.938Z,97721.78
2022-11-19T10:16:12.536Z,97718.66
2022-11-19T10:17:28.688Z,97716.50
2022-11-19T10:18:33.953Z,97718.31
2022-11-19T10:19:51.750Z,97717.44
2022-11-19T10:21:09.220Z,97715.97
2022-11-19T10:22:39.759Z,97724.81
2022-11-19T10:23:54.854Z,97724.25
2022-11-19T10:25:18.916Z,97725.88
2022-11-19T10:26:34.088Z,97731.09
2022-11-19T10:28:02.120Z,97727.47
2022-11-19T10:29:15.536Z,97723.47
2022-11-19T10:30:23.788Z,97724.97
2022-11-19T10:31:32.959Z,97710.16
2022-11-19T10:32:43.490Z,97719.44
2022-11-19T10:34:13.514Z,97715.78
2022-11-19T10:35:21.489Z,97716.00
2022-11-19T10:36:32.219Z,97713.84
2022-11-19T10:37:42.172Z,97714.37
2022-11-19T10:39:19.163Z,97711.84
2022-11-19T10:40:24.940Z,97711.88
2022-11-19T10:41:37.869Z,97713.50
2022-11-19T10:42:46.760Z,97710.62
2022-11-19T10:44:35.170Z,97709.72
2022-11-19T10:45:37.784Z,97715.31
2022-11-19T10:46:42.324Z,97717.50
2022-11-19T10:47:58.282Z,97716.94
2022-11-19T10:49:02.243Z,97715.50
2022-11-19T10:50:10.958Z,97710.97
2022-11-19T10:51:29.755Z,97706.81
2022-11-19T10:52:38.521Z,97708.25
2022-11-19T10:53:42.717Z,97714.97
2022-11-19T10:54:47.774Z,97721.66
2022-11-19T10:55:55.759Z,97719.69
2022-11-19T10:57:00.543Z,97727.09
2022-11-19T10:58:11.703Z,97734.53
2022-11-19T10:59:20.288Z,97745.00
2022-11-19T11:00:23.301Z,97740.50
2022-11-19T11:01:30.282Z,97739.56
2022-11-19T11:02:57.974Z,97743.94
2022-11-19T11:04:21.776Z,97740.13
2022-11-19T11:05:24.503Z,97745.91
2022-11-19T11:06:27.294Z,97739.03
2022-11-19T11:08:11.513Z,97743.75
2022-11-19T11:09:36.281Z,97746.63
2022-11-19T11:10:45.970Z,97756.62
2022-11-19T11:12:07.136Z,97766.41
2022-11-19T11:13:55.125Z,97762.97
2022-11-19T11:15:13.387Z,97764.94
2022-11-19T11:16:19.523Z,97763.28
2022-11-19T11:17:26.341Z,97762.97
2022-11-19T11:18:35.300Z,97762.22
2022-11-19T11:19:38.301Z,97766.56
2022-11-19T11:20:48.261Z,97771.09
2022-11-19T11:21:55.688Z,97765.28
2022-11-19T11:23:10.559Z,97765.28
2022-11-19T11:24:14.667Z,97774.16
2022-11-19T11:25:27.886Z,97768.19
2022-11-19T11:26:33.985Z,97773.81
2022-11-19T11:27:36.705Z,97768.75
2022-11-19T11:29:11.764Z,97767.47
2022-11-19T11:30:16.392Z,97770.38
2022-11-19T11:31:30.308Z,97768.75
2022-11-19T11:33:56.532Z,97764.75
2022-11-19T11:35:02.359Z,97757.50
2022-11-19T11:36:14.245Z,97765.13
2022-11-19T11:37:17.767Z,97765.66
2022-11-19T11:38:22.872Z,97762.03
2022-11-19T11:39:31.404Z,97758.78
2022-11-19T11:40:34.333Z,97758.97
2022-11-19T11:43:06.080Z,97764.56
2022-11-19T11:44:14.623Z,97754.78
2022-11-19T11:45:33.493Z,97757.69
2022-11-19T11:46:50.159Z,97760.06
2022-11-19T11:47:53.040Z,97756.97
2022-11-19T11:49:09.723Z,97756.97
2022-11-19T11:50:22.090Z,97753.53
2022-11-19T11:51:37.049Z,97754.97
2022-11-19T11:52:48.291Z,97749.53
2022-11-19T11:54:05.663Z,97764.22
2022-11-19T11:55:16.265Z,97751.16
2022-11-19T11:56:21.949Z,97755.00
2022-11-19T11:57:31.032Z,97751.19
2022-11-19T11:58:34.805Z,97752.81
2022-11-19T11:59:37.899Z,97748.66
2022-11-19T12:00:44.722Z,97745.94
2022-11-19T12:02:04.558Z,97744.47
2022-11-19T12:03:15.981Z,97753.53
2022-11-19T12:04:18.583Z,97751.91
2022-11-19T12:05:21.855Z,97754.97
2022-11-19T12:06:29.393Z,97752.63
2022-11-19T12:07:54.017Z,97747.34
2022-11-19T12:09:22.641Z,97748.81
2022-11-19T12:10:40.536Z,97747.00
2022-11-19T12:12:02.540Z,97751.00
2022-11-19T12:13:23.603Z,97751.53
2022-11-19T12:15:00.779Z,97754.59
2022-11-19T12:16:27.629Z,97752.44
2022-11-19T12:17:35.421Z,97752.06
2022-11-19T12:18:47.445Z,97746.25
2022-11-19T12:20:05.906Z,97744.47
2022-11-19T12:21:22.580Z,97745.53
2022-11-19T12:22:35.538Z,97745.19
2022-11-19T12:23:49.624Z,97749.19
2022-11-19T12:25:18.586Z,97744.84
2022-11-19T12:26:48.965Z,97745.75
2022-11-19T12:28:31.133Z,97737.25
2022-11-19T12:29:56.753Z,97728.72
2022-11-19T12:31:32.837Z,97726.38
2022-11-19T12:32:44.634Z,97731.97
2022-11-19T12:34:05.696Z,97725.66
2022-11-19T12:35:27.840Z,97720.56
2022-11-19T12:36:48.041Z,97721.66
2022-11-19T12:38:04.975Z,97720.19
2022-11-19T12:39:29.535Z,97723.81
2022-11-19T12:40:41.128Z,97721.44
2022-11-19T12:42:06.835Z,97727.22
2022-11-19T12:43:15.559Z,97717.81
2022-11-19T12:44:34.449Z,97720.50
2022-11-19T12:46:01.310Z,97719.44
2022-11-19T12:47:04.112Z,97726.28
2022-11-19T12:48:16.032Z,97727.00
2022-11-19T12:50:14.421Z,97731.00
2022-11-19T12:51:45.162Z,97721.56
2022-11-19T12:53:10.821Z,97729.00
2022-11-19T12:54:30.282Z,97717.75
2022-11-19T12:56:03.673Z,97718.84
2022-11-19T12:57:15.632Z,97720.66
2022-11-19T12:58:43.537Z,97728.25
2022-11-19T12:59:55.014Z,97735.00
2022-11-19T13:01:06.256Z,97730.81
2022-11-19T13:02:19.777Z,97740.19
2022-11-19T13:03:39.771Z,97734.78
2022-11-19T13:04:48.838Z,97735.53
2022-11-19T13:05:58.627Z,97735.19
2022-11-19T13:07:12.027Z,97734.47
2022-11-19T13:08:34.233Z,97728.47
2022-11-19T13:10:00.952Z,97732.63
2022-11-19T13:11:11.759Z,97734.28
2022-11-19T13:12:18.681Z,97731.00
2022-11-19T13:13:27.352Z,97726.31
2022-11-19T13:14:40.641Z,97736.25
2022-11-19T13:16:08.661Z,97731.38
2022-11-19T13:17:23.104Z,97731.22
2022-11-19T13:18:30.091Z,97736.09
2022-11-19T13:19:36.790Z,97734.47
2022-11-19T13:21:06.286Z,97738.47